sensor_id;sensor_type;location;lat;lon;timestamp;P1;durP1;ratioP1;P2;durP2;ratioP2
14394;SDS011;7282;49.204;10.652;2022-12-18T00:00:11;58.25;;;30.23;;
14394;SDS011;7282;49.204;10.652;2022-12-18T00:02:38;49.85;;;27.07;;
14394;SDS011;7282;49.204;10.652;2022-12-18T00:05:08;51.25;;;28.50;;
14394;SDS011;7282;49.204;10.652;2022-12-18T00:07:35;53.40;;;28.70;;
14394;SDS011;7282;49.204;10.652;2022-12-18T00:10:01;49.75;;;26.73;;
14394;SDS011;7282;49.204;10.652;2022-12-18T00:12:29;53.42;;;29.27;;
14394;SDS011;7282;49.204;10.652;2022-12-18T00:14:55;62.78;;;30.30;;
14394;SDS011;7282;49.204;10.652;2022-12-18T00:17:22;50.63;;;28.65;;
14394;SDS011;7282;49.204;10.652;2022-12-18T00:19:49;46.65;;;26.27;;
14394;SDS011;7282;49.204;10.652;2022-12-18T00:22:15;50.55;;;28.27;;
14394;SDS011;7282;49.204;10.652;2022-12-18T00:24:42;53.25;;;27.95;;
14394;SDS011;7282;49.204;10.652;2022-12-18T00:27:09;50.83;;;29.42;;
14394;SDS011;7282;49.204;10.652;2022-12-18T00:29:35;55.50;;;29.82;;
14394;SDS011;7282;49.204;10.652;2022-12-18T00:32:02;53.40;;;31.33;;
14394;SDS011;7282;49.204;10.652;2022-12-18T00:34:29;64.12;;;32.35;;
14394;SDS011;7282;49.204;10.652;2022-12-18T00:36:56;56.00;;;31.20;;
14394;SDS011;7282;49.204;10.652;2022-12-18T00:39:22;48.00;;;29.77;;
14394;SDS011;7282;49.204;10.652;2022-12-18T00:41:49;74.92;;;35.00;;
14394;SDS011;7282;49.204;10.652;2022-12-18T00:44:34;56.35;;;31.82;;
14394;SDS011;7282;49.204;10.652;2022-12-18T00:47:00;65.70;;;35.13;;
14394;SDS011;7282;49.204;10.652;2022-12-18T00:49:27;60.08;;;32.70;;
14394;SDS011;7282;49.204;10.652;2022-12-18T00:51:54;51.98;;;31.42;;
14394;SDS011;7282;49.204;10.652;2022-12-18T00:54:20;52.85;;;32.00;;
14394;SDS011;7282;49.204;10.652;2022-12-18T00:56:47;61.15;;;32.70;;
14394;SDS011;7282;49.204;10.652;2022-12-18T00:59:14;58.98;;;32.40;;
14394;SDS011;7282;49.204;10.652;2022-12-18T01:01:41;56.90;;;31.02;;
14394;SDS011;7282;49.204;10.652;2022-12-18T01:04:08;53.15;;;31.20;;
14394;SDS011;7282;49.204;10.652;2022-12-18T01:06:35;59.83;;;30.40;;
14394;SDS011;7282;49.204;10.652;2022-12-18T01:09:02;62.75;;;33.38;;
14394;SDS011;7282;49.204;10.652;2022-12-18T01:11:33;56.65;;;31.80;;
14394;SDS011;7282;49.204;10.652;2022-12-18T01:13:57;56.33;;;31.80;;
14394;SDS011;7282;49.204;10.652;2022-12-18T01:16:24;64.40;;;32.23;;
14394;SDS011;7282;49.204;10.652;2022-12-18T01:18:51;54.35;;;33.10;;
14394;SDS011;7282;49.204;10.652;2022-12-18T01:21:18;60.23;;;32.98;;
14394;SDS011;7282;49.204;10.652;2022-12-18T01:23:45;61.02;;;32.93;;
14394;SDS011;7282;49.204;10.652;2022-12-18T01:26:13;66.90;;;34.60;;
14394;SDS011;7282;49.204;10.652;2022-12-18T01:28:40;75.08;;;36.75;;
14394;SDS011;7282;49.204;10.652;2022-12-18T01:33:39;70.05;;;37.38;;
14394;SDS011;7282;49.204;10.652;2022-12-18T01:36:06;75.32;;;37.63;;
14394;SDS011;7282;49.204;10.652;2022-12-18T01:38:32;79.97;;;40.35;;
14394;SDS011;7282;49.204;10.652;2022-12-18T01:41:00;68.33;;;37.35;;
14394;SDS011;7282;49.204;10.652;2022-12-18T01:46:12;92.10;;;40.80;;
14394;SDS011;7282;49.204;10.652;2022-12-18T01:48:39;102.40;;;44.75;;
14394;SDS011;7282;49.204;10.652;2022-12-18T01:51:07;101.82;;;47.30;;
14394;SDS011;7282;49.204;10.652;2022-12-18T01:53:34;104.03;;;43.50;;
14394;SDS011;7282;49.204;10.652;2022-12-18T01:56:02;99.15;;;43.10;;
14394;SDS011;7282;49.204;10.652;2022-12-18T01:58:37;114.12;;;44.58;;
14394;SDS011;7282;49.204;10.652;2022-12-18T02:01:04;121.40;;;45.10;;
14394;SDS011;7282;49.204;10.652;2022-12-18T02:03:30;111.15;;;43.87;;
14394;SDS011;7282;49.204;10.652;2022-12-18T02:06:04;102.02;;;45.55;;
14394;SDS011;7282;49.204;10.652;2022-12-18T02:08:31;120.97;;;45.50;;
14394;SDS011;7282;49.204;10.652;2022-12-18T02:11:02;107.65;;;43.58;;
14394;SDS011;7282;49.204;10.652;2022-12-18T02:13:50;116.35;;;49.10;;
14394;SDS011;7282;49.204;10.652;2022-12-18T02:18:41;115.57;;;47.38;;
14394;SDS011;7282;49.204;10.652;2022-12-18T02:23:42;104.38;;;44.25;;
14394;SDS011;7282;49.204;10.652;2022-12-18T02:26:07;100.07;;;45.48;;
14394;SDS011;7282;49.204;10.652;2022-12-18T02:28:36;116.05;;;46.58;;
14394;SDS011;7282;49.204;10.652;2022-12-18T02:31:04;111.50;;;45.83;;
14394;SDS011;7282;49.204;10.652;2022-12-18T02:33:32;105.75;;;43.80;;
14394;SDS011;7282;49.204;10.652;2022-12-18T02:35:59;114.88;;;45.73;;
14394;SDS011;7282;49.204;10.652;2022-12-18T02:38:26;100.22;;;46.28;;
14394;SDS011;7282;49.204;10.652;2022-12-18T02:40:54;95.72;;;44.33;;
14394;SDS011;7282;49.204;10.652;2022-12-18T02:43:22;99.20;;;43.23;;
14394;SDS011;7282;49.204;10.652;2022-12-18T02:45:53;95.45;;;42.75;;
14394;SDS011;7282;49.204;10.652;2022-12-18T02:48:22;99.50;;;42.25;;
14394;SDS011;7282;49.204;10.652;2022-12-18T02:51:34;96.00;;;43.40;;
14394;SDS011;7282;49.204;10.652;2022-12-18T02:56:20;95.65;;;42.67;;
14394;SDS011;7282;49.204;10.652;2022-12-18T03:01:21;95.62;;;41.48;;
14394;SDS011;7282;49.204;10.652;2022-12-18T03:06:23;92.78;;;39.73;;
14394;SDS011;7282;49.204;10.652;2022-12-18T03:08:47;98.70;;;41.55;;
14394;SDS011;7282;49.204;10.652;2022-12-18T03:11:14;77.75;;;39.35;;
14394;SDS011;7282;49.204;10.652;2022-12-18T03:13:49;82.92;;;38.70;;
14394;SDS011;7282;49.204;10.652;2022-12-18T03:16:17;88.03;;;37.50;;
14394;SDS011;7282;49.204;10.652;2022-12-18T03:18:48;82.08;;;37.60;;
14394;SDS011;7282;49.204;10.652;2022-12-18T03:21:16;88.05;;;40.25;;
14394;SDS011;7282;49.204;10.652;2022-12-18T03:23:45;78.02;;;38.40;;
14394;SDS011;7282;49.204;10.652;2022-12-18T03:26:14;81.28;;;37.28;;
14394;SDS011;7282;49.204;10.652;2022-12-18T03:28:42;76.85;;;38.10;;
14394;SDS011;7282;49.204;10.652;2022-12-18T03:31:10;72.42;;;36.60;;
14394;SDS011;7282;49.204;10.652;2022-12-18T03:33:38;71.25;;;37.08;;
14394;SDS011;7282;49.204;10.652;2022-12-18T03:36:06;84.47;;;36.48;;
14394;SDS011;7282;49.204;10.652;2022-12-18T03:38:33;77.25;;;35.78;;
14394;SDS011;7282;49.204;10.652;2022-12-18T03:41:02;66.05;;;32.23;;
14394;SDS011;7282;49.204;10.652;2022-12-18T03:43:32;58.80;;;29.65;;
14394;SDS011;7282;49.204;10.652;2022-12-18T03:46:05;59.58;;;28.65;;
14394;SDS011;7282;49.204;10.652;2022-12-18T03:48:33;61.20;;;28.52;;
14394;SDS011;7282;49.204;10.652;2022-12-18T03:50:57;57.23;;;28.38;;
14394;SDS011;7282;49.204;10.652;2022-12-18T03:53:28;61.28;;;28.70;;
14394;SDS011;7282;49.204;10.652;2022-12-18T03:55:54;58.58;;;28.38;;
14394;SDS011;7282;49.204;10.652;2022-12-18T03:58:23;59.90;;;28.50;;
14394;SDS011;7282;49.204;10.652;2022-12-18T04:00:50;59.18;;;26.85;;
14394;SDS011;7282;49.204;10.652;2022-12-18T04:03:18;55.23;;;28.67;;
14394;SDS011;7282;49.204;10.652;2022-12-18T04:05:46;64.60;;;29.42;;
14394;SDS011;7282;49.204;10.652;2022-12-18T04:08:14;59.60;;;27.85;;
14394;SDS011;7282;49.204;10.652;2022-12-18T04:10:41;56.65;;;26.73;;
14394;SDS011;7282;49.204;10.652;2022-12-18T04:13:08;56.77;;;28.00;;
14394;SDS011;7282;49.204;10.652;2022-12-18T04:15:35;52.83;;;27.10;;
14394;SDS011;7282;49.204;10.652;2022-12-18T04:18:03;67.80;;;29.85;;
14394;SDS011;7282;49.204;10.652;2022-12-18T04:20:29;60.03;;;27.48;;
14394;SDS011;7282;49.204;10.652;2022-12-18T04:22:56;60.85;;;28.62;;
14394;SDS011;7282;49.204;10.652;2022-12-18T04:25:23;57.53;;;28.23;;
14394;SDS011;7282;49.204;10.652;2022-12-18T04:27:49;59.00;;;27.62;;
14394;SDS011;7282;49.204;10.652;2022-12-18T04:30:16;59.20;;;28.20;;
14394;SDS011;7282;49.204;10.652;2022-12-18T04:32:43;57.25;;;26.65;;
14394;SDS011;7282;49.204;10.652;2022-12-18T04:35:10;63.58;;;26.75;;
14394;SDS011;7282;49.204;10.652;2022-12-18T04:37:37;54.58;;;29.12;;
14394;SDS011;7282;49.204;10.652;2022-12-18T04:40:04;56.15;;;27.35;;
14394;SDS011;7282;49.204;10.652;2022-12-18T04:42:31;58.00;;;27.67;;
14394;SDS011;7282;49.204;10.652;2022-12-18T04:44:58;49.40;;;27.58;;
14394;SDS011;7282;49.204;10.652;2022-12-18T04:47:25;60.73;;;27.32;;
14394;SDS011;7282;49.204;10.652;2022-12-18T04:49:51;58.48;;;28.02;;
14394;SDS011;7282;49.204;10.652;2022-12-18T04:52:18;57.53;;;27.40;;
14394;SDS011;7282;49.204;10.652;2022-12-18T04:54:45;55.17;;;26.77;;
14394;SDS011;7282;49.204;10.652;2022-12-18T04:57:11;58.48;;;27.40;;
14394;SDS011;7282;49.204;10.652;2022-12-18T04:59:38;62.08;;;28.60;;
14394;SDS011;7282;49.204;10.652;2022-12-18T05:02:05;60.35;;;30.55;;
14394;SDS011;7282;49.204;10.652;2022-12-18T05:04:31;57.35;;;26.42;;
14394;SDS011;7282;49.204;10.652;2022-12-18T05:06:58;65.50;;;29.15;;
14394;SDS011;7282;49.204;10.652;2022-12-18T05:09:25;61.83;;;26.75;;
14394;SDS011;7282;49.204;10.652;2022-12-18T05:11:52;65.97;;;29.15;;
14394;SDS011;7282;49.204;10.652;2022-12-18T05:14:18;56.05;;;27.27;;
14394;SDS011;7282;49.204;10.652;2022-12-18T05:16:45;61.20;;;26.77;;
14394;SDS011;7282;49.204;10.652;2022-12-18T05:19:12;57.78;;;28.02;;
14394;SDS011;7282;49.204;10.652;2022-12-18T05:21:38;52.55;;;25.40;;
14394;SDS011;7282;49.204;10.652;2022-12-18T05:24:05;58.63;;;27.85;;
14394;SDS011;7282;49.204;10.652;2022-12-18T05:26:32;57.30;;;27.22;;
14394;SDS011;7282;49.204;10.652;2022-12-18T05:28:58;55.10;;;26.87;;
14394;SDS011;7282;49.204;10.652;2022-12-18T05:31:25;54.63;;;25.43;;
14394;SDS011;7282;49.204;10.652;2022-12-18T05:33:52;57.67;;;26.75;;
14394;SDS011;7282;49.204;10.652;2022-12-18T05:36:18;53.38;;;25.68;;
14394;SDS011;7282;49.204;10.652;2022-12-18T05:38:45;58.87;;;27.35;;
14394;SDS011;7282;49.204;10.652;2022-12-18T05:41:12;55.67;;;25.12;;
14394;SDS011;7282;49.204;10.652;2022-12-18T05:43:39;61.53;;;25.85;;
14394;SDS011;7282;49.204;10.652;2022-12-18T05:46:06;59.55;;;27.30;;
14394;SDS011;7282;49.204;10.652;2022-12-18T05:48:33;57.15;;;24.92;;
14394;SDS011;7282;49.204;10.652;2022-12-18T05:51:08;56.23;;;26.97;;
14394;SDS011;7282;49.204;10.652;2022-12-18T05:53:32;54.25;;;24.12;;
14394;SDS011;7282;49.204;10.652;2022-12-18T05:56:02;54.63;;;26.60;;
14394;SDS011;7282;49.204;10.652;2022-12-18T05:58:30;56.00;;;24.95;;
14394;SDS011;7282;49.204;10.652;2022-12-18T06:00:57;57.43;;;24.98;;
14394;SDS011;7282;49.204;10.652;2022-12-18T06:03:24;52.65;;;25.02;;
14394;SDS011;7282;49.204;10.652;2022-12-18T06:05:51;54.30;;;25.92;;
14394;SDS011;7282;49.204;10.652;2022-12-18T06:08:17;51.95;;;24.47;;
14394;SDS011;7282;49.204;10.652;2022-12-18T06:10:49;52.65;;;26.52;;
14394;SDS011;7282;49.204;10.652;2022-12-18T06:13:13;52.05;;;25.57;;
14394;SDS011;7282;49.204;10.652;2022-12-18T06:15:39;52.90;;;24.67;;
14394;SDS011;7282;49.204;10.652;2022-12-18T06:18:06;51.23;;;23.77;;
14394;SDS011;7282;49.204;10.652;2022-12-18T06:20:33;53.35;;;24.37;;
14394;SDS011;7282;49.204;10.652;2022-12-18T06:23:01;51.68;;;24.47;;
14394;SDS011;7282;49.204;10.652;2022-12-18T06:25:28;48.68;;;22.90;;
14394;SDS011;7282;49.204;10.652;2022-12-18T06:27:55;54.30;;;25.80;;
14394;SDS011;7282;49.204;10.652;2022-12-18T06:30:21;54.53;;;23.32;;
14394;SDS011;7282;49.204;10.652;2022-12-18T06:32:48;51.35;;;23.75;;
14394;SDS011;7282;49.204;10.652;2022-12-18T06:35:15;55.60;;;24.07;;
14394;SDS011;7282;49.204;10.652;2022-12-18T06:37:42;51.08;;;22.60;;
14394;SDS011;7282;49.204;10.652;2022-12-18T06:40:09;47.38;;;24.57;;
14394;SDS011;7282;49.204;10.652;2022-12-18T06:42:35;52.78;;;23.73;;
14394;SDS011;7282;49.204;10.652;2022-12-18T06:45:02;55.05;;;23.10;;
14394;SDS011;7282;49.204;10.652;2022-12-18T06:47:29;51.08;;;23.35;;
14394;SDS011;7282;49.204;10.652;2022-12-18T06:49:56;45.58;;;23.00;;
14394;SDS011;7282;49.204;10.652;2022-12-18T06:52:22;59.08;;;25.32;;
14394;SDS011;7282;49.204;10.652;2022-12-18T06:54:49;51.70;;;23.50;;
14394;SDS011;7282;49.204;10.652;2022-12-18T06:57:16;57.55;;;25.02;;
14394;SDS011;7282;49.204;10.652;2022-12-18T06:59:42;61.73;;;25.82;;
14394;SDS011;7282;49.204;10.652;2022-12-18T07:02:14;52.50;;;24.52;;
14394;SDS011;7282;49.204;10.652;2022-12-18T07:04:38;51.13;;;23.62;;
14394;SDS011;7282;49.204;10.652;2022-12-18T07:07:05;57.45;;;24.72;;
14394;SDS011;7282;49.204;10.652;2022-12-18T07:09:32;50.95;;;24.80;;
14394;SDS011;7282;49.204;10.652;2022-12-18T07:11:59;53.70;;;24.43;;
14394;SDS011;7282;49.204;10.652;2022-12-18T07:14:25;53.85;;;23.75;;
14394;SDS011;7282;49.204;10.652;2022-12-18T07:16:52;51.48;;;24.57;;
14394;SDS011;7282;49.204;10.652;2022-12-18T07:19:21;51.05;;;23.77;;
14394;SDS011;7282;49.204;10.652;2022-12-18T07:21:47;53.87;;;24.40;;
14394;SDS011;7282;49.204;10.652;2022-12-18T07:24:15;54.63;;;24.70;;
14394;SDS011;7282;49.204;10.652;2022-12-18T07:26:42;52.73;;;23.50;;
14394;SDS011;7282;49.204;10.652;2022-12-18T07:29:11;57.43;;;22.90;;
14394;SDS011;7282;49.204;10.652;2022-12-18T07:31:37;57.78;;;25.25;;
14394;SDS011;7282;49.204;10.652;2022-12-18T07:34:04;48.83;;;22.75;;
14394;SDS011;7282;49.204;10.652;2022-12-18T07:36:31;54.25;;;24.18;;
14394;SDS011;7282;49.204;10.652;2022-12-18T07:38:57;56.18;;;24.27;;
14394;SDS011;7282;49.204;10.652;2022-12-18T07:41:24;51.02;;;24.15;;
14394;SDS011;7282;49.204;10.652;2022-12-18T07:43:51;53.23;;;23.15;;
14394;SDS011;7282;49.204;10.652;2022-12-18T07:46:18;52.30;;;23.75;;
14394;SDS011;7282;49.204;10.652;2022-12-18T07:48:45;47.17;;;25.43;;
14394;SDS011;7282;49.204;10.652;2022-12-18T07:51:11;47.50;;;23.65;;
14394;SDS011;7282;49.204;10.652;2022-12-18T07:53:38;48.48;;;23.60;;
14394;SDS011;7282;49.204;10.652;2022-12-18T07:56:09;54.15;;;23.73;;
14394;SDS011;7282;49.204;10.652;2022-12-18T07:58:36;50.03;;;24.00;;
14394;SDS011;7282;49.204;10.652;2022-12-18T08:01:04;52.17;;;24.43;;
14394;SDS011;7282;49.204;10.652;2022-12-18T08:03:30;54.80;;;24.35;;
14394;SDS011;7282;49.204;10.652;2022-12-18T08:06:00;52.40;;;23.60;;
14394;SDS011;7282;49.204;10.652;2022-12-18T08:08:28;52.93;;;24.12;;
14394;SDS011;7282;49.204;10.652;2022-12-18T08:10:55;47.70;;;24.70;;
14394;SDS011;7282;49.204;10.652;2022-12-18T08:13:21;49.65;;;24.55;;
14394;SDS011;7282;49.204;10.652;2022-12-18T08:15:57;51.70;;;24.47;;
14394;SDS011;7282;49.204;10.652;2022-12-18T08:18:24;57.13;;;26.25;;
14394;SDS011;7282;49.204;10.652;2022-12-18T08:20:51;54.63;;;25.40;;
14394;SDS011;7282;49.204;10.652;2022-12-18T08:23:18;51.83;;;24.45;;
14394;SDS011;7282;49.204;10.652;2022-12-18T08:25:45;49.13;;;24.35;;
14394;SDS011;7282;49.204;10.652;2022-12-18T08:28:11;52.62;;;24.85;;
14394;SDS011;7282;49.204;10.652;2022-12-18T08:30:38;48.10;;;22.93;;
14394;SDS011;7282;49.204;10.652;2022-12-18T08:33:05;49.40;;;23.47;;
14394;SDS011;7282;49.204;10.652;2022-12-18T08:35:34;49.50;;;24.20;;
14394;SDS011;7282;49.204;10.652;2022-12-18T08:38:00;51.48;;;23.95;;
14394;SDS011;7282;49.204;10.652;2022-12-18T08:40:27;55.15;;;24.98;;
14394;SDS011;7282;49.204;10.652;2022-12-18T08:42:54;52.50;;;24.60;;
14394;SDS011;7282;49.204;10.652;2022-12-18T08:45:39;49.42;;;23.75;;
14394;SDS011;7282;49.204;10.652;2022-12-18T08:48:06;52.27;;;22.73;;
14394;SDS011;7282;49.204;10.652;2022-12-18T08:50:32;45.60;;;24.72;;
14394;SDS011;7282;49.204;10.652;2022-12-18T08:52:59;47.88;;;21.45;;
14394;SDS011;7282;49.204;10.652;2022-12-18T08:55:26;48.33;;;23.95;;
14394;SDS011;7282;49.204;10.652;2022-12-18T08:57:53;46.50;;;22.45;;
14394;SDS011;7282;49.204;10.652;2022-12-18T09:00:20;45.05;;;22.40;;
14394;SDS011;7282;49.204;10.652;2022-12-18T09:02:49;45.92;;;21.50;;
14394;SDS011;7282;49.204;10.652;2022-12-18T09:05:16;43.13;;;24.45;;
14394;SDS011;7282;49.204;10.652;2022-12-18T09:07:43;44.23;;;20.90;;
14394;SDS011;7282;49.204;10.652;2022-12-18T09:10:09;42.98;;;22.25;;
14394;SDS011;7282;49.204;10.652;2022-12-18T09:12:36;41.63;;;21.33;;
14394;SDS011;7282;49.204;10.652;2022-12-18T09:15:03;43.98;;;22.87;;
14394;SDS011;7282;49.204;10.652;2022-12-18T09:17:30;44.42;;;23.02;;
14394;SDS011;7282;49.204;10.652;2022-12-18T09:19:56;42.98;;;21.62;;
14394;SDS011;7282;49.204;10.652;2022-12-18T09:22:23;43.25;;;21.02;;
14394;SDS011;7282;49.204;10.652;2022-12-18T09:24:50;41.55;;;22.15;;
14394;SDS011;7282;49.204;10.652;2022-12-18T09:27:17;43.45;;;21.73;;
14394;SDS011;7282;49.204;10.652;2022-12-18T09:29:43;38.75;;;20.80;;
14394;SDS011;7282;49.204;10.652;2022-12-18T09:32:10;38.08;;;20.23;;
14394;SDS011;7282;49.204;10.652;2022-12-18T09:34:37;37.20;;;19.95;;
14394;SDS011;7282;49.204;10.652;2022-12-18T09:37:03;37.23;;;19.85;;
14394;SDS011;7282;49.204;10.652;2022-12-18T09:39:30;40.20;;;20.70;;
14394;SDS011;7282;49.204;10.652;2022-12-18T09:41:57;33.98;;;18.77;;
14394;SDS011;7282;49.204;10.652;2022-12-18T09:44:25;37.73;;;19.02;;
14394;SDS011;7282;49.204;10.652;2022-12-18T09:46:54;35.75;;;19.32;;
14394;SDS011;7282;49.204;10.652;2022-12-18T09:49:22;38.00;;;18.42;;
14394;SDS011;7282;49.204;10.652;2022-12-18T09:52:12;35.40;;;18.82;;
14394;SDS011;7282;49.204;10.652;2022-12-18T09:54:20;32.25;;;18.73;;
14394;SDS011;7282;49.204;10.652;2022-12-18T09:56:46;33.42;;;18.50;;
14394;SDS011;7282;49.204;10.652;2022-12-18T10:01:48;37.90;;;18.55;;
14394;SDS011;7282;49.204;10.652;2022-12-18T10:04:14;37.78;;;19.67;;
14394;SDS011;7282;49.204;10.652;2022-12-18T10:06:50;34.03;;;19.32;;
14394;SDS011;7282;49.204;10.652;2022-12-18T10:12:00;34.25;;;19.07;;
14394;SDS011;7282;49.204;10.652;2022-12-18T10:19:59;32.35;;;18.48;;
14394;SDS011;7282;49.204;10.652;2022-12-18T10:25:05;35.35;;;18.80;;
14394;SDS011;7282;49.204;10.652;2022-12-18T10:27:32;32.35;;;18.00;;
14394;SDS011;7282;49.204;10.652;2022-12-18T10:29:58;34.08;;;18.37;;
14394;SDS011;7282;49.204;10.652;2022-12-18T10:32:27;35.48;;;19.65;;
14394;SDS011;7282;49.204;10.652;2022-12-18T10:34:55;34.00;;;20.27;;
14394;SDS011;7282;49.204;10.652;2022-12-18T10:37:24;36.85;;;18.87;;
14394;SDS011;7282;49.204;10.652;2022-12-18T10:40:07;35.80;;;18.90;;
14394;SDS011;7282;49.204;10.652;2022-12-18T10:42:34;29.63;;;17.77;;
14394;SDS011;7282;49.204;10.652;2022-12-18T10:45:03;33.23;;;19.12;;
14394;SDS011;7282;49.204;10.652;2022-12-18T10:47:30;32.55;;;18.40;;
14394;SDS011;7282;49.204;10.652;2022-12-18T10:49:56;35.55;;;19.48;;
14394;SDS011;7282;49.204;10.652;2022-12-18T10:52:24;35.63;;;20.30;;
14394;SDS011;7282;49.204;10.652;2022-12-18T10:54:55;32.20;;;18.45;;
14394;SDS011;7282;49.204;10.652;2022-12-18T10:57:37;35.65;;;19.67;;
14394;SDS011;7282;49.204;10.652;2022-12-18T11:00:21;33.20;;;17.73;;
14394;SDS011;7282;49.204;10.652;2022-12-18T11:02:48;34.88;;;18.82;;
14394;SDS011;7282;49.204;10.652;2022-12-18T11:05:29;34.70;;;19.23;;
14394;SDS011;7282;49.204;10.652;2022-12-18T11:07:52;32.50;;;19.02;;
14394;SDS011;7282;49.204;10.652;2022-12-18T11:10:25;31.87;;;18.52;;
14394;SDS011;7282;49.204;10.652;2022-12-18T11:12:51;30.82;;;18.95;;
14394;SDS011;7282;49.204;10.652;2022-12-18T11:15:23;31.02;;;18.92;;
14394;SDS011;7282;49.204;10.652;2022-12-18T11:17:50;31.68;;;18.50;;
14394;SDS011;7282;49.204;10.652;2022-12-18T11:20:26;32.10;;;17.90;;
14394;SDS011;7282;49.204;10.652;2022-12-18T11:23:01;29.48;;;17.05;;
14394;SDS011;7282;49.204;10.652;2022-12-18T11:25:29;32.48;;;18.35;;
14394;SDS011;7282;49.204;10.652;2022-12-18T11:27:58;30.27;;;17.40;;
14394;SDS011;7282;49.204;10.652;2022-12-18T11:35:37;30.40;;;17.37;;
14394;SDS011;7282;49.204;10.652;2022-12-18T11:38:22;32.08;;;17.57;;
14394;SDS011;7282;49.204;10.652;2022-12-18T11:40:38;30.60;;;18.45;;
14394;SDS011;7282;49.204;10.652;2022-12-18T11:45:47;32.63;;;18.15;;
14394;SDS011;7282;49.204;10.652;2022-12-18T11:48:17;31.93;;;18.52;;
14394;SDS011;7282;49.204;10.652;2022-12-18T11:50:48;34.05;;;18.82;;
14394;SDS011;7282;49.204;10.652;2022-12-18T11:53:15;31.65;;;18.80;;
14394;SDS011;7282;49.204;10.652;2022-12-18T11:58:42;28.55;;;18.55;;
14394;SDS011;7282;49.204;10.652;2022-12-18T12:04:20;33.63;;;18.62;;
14394;SDS011;7282;49.204;10.652;2022-12-18T12:11:30;28.83;;;18.67;;
14394;SDS011;7282;49.204;10.652;2022-12-18T12:14:08;36.55;;;20.02;;
14394;SDS011;7282;49.204;10.652;2022-12-18T12:16:44;38.15;;;18.70;;
14394;SDS011;7282;49.204;10.652;2022-12-18T12:19:29;37.40;;;20.20;;
14394;SDS011;7282;49.204;10.652;2022-12-18T12:21:58;33.60;;;18.52;;
14394;SDS011;7282;49.204;10.652;2022-12-18T12:24:36;33.78;;;19.80;;
14394;SDS011;7282;49.204;10.652;2022-12-18T12:34:34;33.38;;;19.12;;
14394;SDS011;7282;49.204;10.652;2022-12-18T12:39:30;32.88;;;19.57;;
14394;SDS011;7282;49.204;10.652;2022-12-18T12:41:56;33.58;;;20.20;;
14394;SDS011;7282;49.204;10.652;2022-12-18T12:44:50;31.50;;;17.95;;
14394;SDS011;7282;49.204;10.652;2022-12-18T12:47:22;29.95;;;19.17;;
14394;SDS011;7282;49.204;10.652;2022-12-18T12:49:45;34.40;;;20.55;;
14394;SDS011;7282;49.204;10.652;2022-12-18T12:54:54;32.33;;;19.62;;
14394;SDS011;7282;49.204;10.652;2022-12-18T12:57:23;34.00;;;18.90;;
14394;SDS011;7282;49.204;10.652;2022-12-18T13:00:09;32.53;;;19.30;;
14394;SDS011;7282;49.204;10.652;2022-12-18T13:05:23;30.62;;;18.30;;
14394;SDS011;7282;49.204;10.652;2022-12-18T13:08:07;33.10;;;19.20;;
14394;SDS011;7282;49.204;10.652;2022-12-18T13:12:55;33.45;;;18.80;;
14394;SDS011;7282;49.204;10.652;2022-12-18T13:15:27;36.23;;;20.15;;
14394;SDS011;7282;49.204;10.652;2022-12-18T13:18:09;31.73;;;18.82;;
14394;SDS011;7282;49.204;10.652;2022-12-18T13:20:34;30.60;;;18.62;;
14394;SDS011;7282;49.204;10.652;2022-12-18T13:23:25;31.48;;;18.92;;
14394;SDS011;7282;49.204;10.652;2022-12-18T13:25:46;33.95;;;19.25;;
14394;SDS011;7282;49.204;10.652;2022-12-18T13:28:13;32.98;;;19.30;;
14394;SDS011;7282;49.204;10.652;2022-12-18T13:38:22;31.63;;;18.17;;
14394;SDS011;7282;49.204;10.652;2022-12-18T13:43:22;34.50;;;20.45;;
14394;SDS011;7282;49.204;10.652;2022-12-18T13:45:50;32.58;;;19.25;;
14394;SDS011;7282;49.204;10.652;2022-12-18T13:48:22;31.68;;;18.60;;
14394;SDS011;7282;49.204;10.652;2022-12-18T13:50:55;31.87;;;19.70;;
14394;SDS011;7282;49.204;10.652;2022-12-18T13:53:20;32.17;;;21.02;;
14394;SDS011;7282;49.204;10.652;2022-12-18T13:55:47;38.08;;;20.25;;
14394;SDS011;7282;49.204;10.652;2022-12-18T13:58:15;32.67;;;19.62;;
14394;SDS011;7282;49.204;10.652;2022-12-18T14:00:42;33.45;;;19.25;;
14394;SDS011;7282;49.204;10.652;2022-12-18T14:03:23;32.05;;;18.70;;
14394;SDS011;7282;49.204;10.652;2022-12-18T14:05:46;29.70;;;17.75;;
14394;SDS011;7282;49.204;10.652;2022-12-18T14:08:15;32.58;;;18.50;;
14394;SDS011;7282;49.204;10.652;2022-12-18T14:10:43;35.08;;;18.92;;
14394;SDS011;7282;49.204;10.652;2022-12-18T14:13:10;32.25;;;19.02;;
14394;SDS011;7282;49.204;10.652;2022-12-18T14:15:39;31.23;;;18.57;;
14394;SDS011;7282;49.204;10.652;2022-12-18T14:20:52;29.82;;;18.15;;
14394;SDS011;7282;49.204;10.652;2022-12-18T14:25:57;32.25;;;18.80;;
14394;SDS011;7282;49.204;10.652;2022-12-18T14:28:24;32.73;;;19.80;;
14394;SDS011;7282;49.204;10.652;2022-12-18T14:30:52;34.55;;;19.45;;
14394;SDS011;7282;49.204;10.652;2022-12-18T14:33:21;32.35;;;19.65;;
14394;SDS011;7282;49.204;10.652;2022-12-18T14:35:52;33.00;;;18.73;;
14394;SDS011;7282;49.204;10.652;2022-12-18T14:41:02;33.08;;;19.48;;
14394;SDS011;7282;49.204;10.652;2022-12-18T14:43:26;31.27;;;19.52;;
14394;SDS011;7282;49.204;10.652;2022-12-18T14:45:53;34.55;;;19.62;;
14394;SDS011;7282;49.204;10.652;2022-12-18T14:48:21;32.15;;;19.52;;
14394;SDS011;7282;49.204;10.652;2022-12-18T14:50:55;30.40;;;18.25;;
14394;SDS011;7282;49.204;10.652;2022-12-18T14:53:23;31.65;;;19.37;;
14394;SDS011;7282;49.204;10.652;2022-12-18T14:55:51;35.20;;;19.75;;
14394;SDS011;7282;49.204;10.652;2022-12-18T14:58:18;34.53;;;18.67;;
14394;SDS011;7282;49.204;10.652;2022-12-18T15:00:45;35.38;;;18.67;;
14394;SDS011;7282;49.204;10.652;2022-12-18T15:03:13;37.88;;;19.65;;
14394;SDS011;7282;49.204;10.652;2022-12-18T15:05:40;38.55;;;20.23;;
14394;SDS011;7282;49.204;10.652;2022-12-18T15:08:24;37.30;;;20.77;;
14394;SDS011;7282;49.204;10.652;2022-12-18T15:10:45;32.95;;;19.27;;
14394;SDS011;7282;49.204;10.652;2022-12-18T15:18:10;40.43;;;21.82;;
14394;SDS011;7282;49.204;10.652;2022-12-18T15:20:49;33.95;;;19.55;;
14394;SDS011;7282;49.204;10.652;2022-12-18T15:23:20;41.83;;;21.10;;
14394;SDS011;7282;49.204;10.652;2022-12-18T15:25:49;36.70;;;20.97;;
14394;SDS011;7282;49.204;10.652;2022-12-18T15:28:22;40.00;;;21.12;;
14394;SDS011;7282;49.204;10.652;2022-12-18T15:31:32;37.78;;;21.23;;
14394;SDS011;7282;49.204;10.652;2022-12-18T15:33:24;35.23;;;22.07;;
14394;SDS011;7282;49.204;10.652;2022-12-18T15:35:57;41.25;;;22.13;;
14394;SDS011;7282;49.204;10.652;2022-12-18T15:38:24;37.63;;;20.12;;
14394;SDS011;7282;49.204;10.652;2022-12-18T15:40:52;41.13;;;19.32;;
14394;SDS011;7282;49.204;10.652;2022-12-18T15:43:20;37.88;;;21.05;;
14394;SDS011;7282;49.204;10.652;2022-12-18T15:46:08;35.55;;;20.60;;
14394;SDS011;7282;49.204;10.652;2022-12-18T15:48:32;39.75;;;21.37;;
14394;SDS011;7282;49.204;10.652;2022-12-18T15:50:59;40.00;;;21.77;;
14394;SDS011;7282;49.204;10.652;2022-12-18T15:53:27;40.15;;;22.10;;
14394;SDS011;7282;49.204;10.652;2022-12-18T15:55:54;38.85;;;20.65;;
14394;SDS011;7282;49.204;10.652;2022-12-18T15:58:39;37.93;;;22.00;;